createdAt,value
2022-10-05T00:00:57.806Z,6.50
2022-10-05T00:03:26.326Z,6.47
2022-10-05T00:05:54.695Z,6.00
2022-10-05T00:08:25.184Z,6.40
2022-10-05T00:10:53.567Z,6.57
2022-10-05T00:13:25.352Z,6.80
2022-10-05T00:15:58.078Z,6.57
2022-10-05T00:18:27.655Z,6.87
2022-10-05T00:20:55.899Z,6.20
2022-10-05T00:23:26.929Z,7.13
2022-10-05T00:25:54.876Z,6.70
2022-10-05T00:28:31.063Z,6.67
2022-10-05T00:31:00.348Z,6.83
2022-10-05T00:33:28.703Z,7.13
2022-10-05T00:35:56.931Z,6.80
2022-10-05T00:38:24.792Z,7.03
2022-10-05T00:41:05.220Z,6.53
2022-10-05T00:43:59.011Z,6.80
2022-10-05T00:46:31.860Z,6.73
2022-10-05T00:49:07.219Z,6.63
2022-10-05T00:51:38.253Z,6.77
2022-10-05T00:54:22.207Z,6.60
2022-10-05T00:57:07.129Z,7.00
2022-10-05T00:59:49.318Z,6.77
2022-10-05T01:02:25.628Z,6.90
2022-10-05T01:04:57.753Z,6.77
2022-10-05T01:07:36.665Z,6.47
2022-10-05T01:10:16.816Z,7.13
2022-10-05T01:12:52.504Z,7.00
2022-10-05T01:15:28.984Z,7.07
2022-10-05T01:18:06.582Z,7.10
2022-10-05T01:20:43.381Z,7.30
2022-10-05T01:23:41.349Z,6.70
2022-10-05T01:26:25.406Z,6.37
2022-10-05T01:29:01.664Z,6.87
2022-10-05T01:31:37.348Z,6.97
2022-10-05T01:34:14.029Z,7.10
2022-10-05T01:36:49.885Z,6.70
2022-10-05T01:39:25.235Z,6.90
2022-10-05T01:42:02.034Z,6.57
2022-10-05T01:44:38.612Z,6.53
2022-10-05T01:47:10.992Z,6.87
2022-10-05T01:49:45.567Z,6.20
2022-10-05T01:52:24.335Z,6.40
2022-10-05T01:55:04.078Z,6.57
2022-10-05T01:57:47.454Z,6.47
2022-10-05T02:00:19.167Z,6.40
2022-10-05T02:02:49.931Z,6.83
2022-10-05T02:05:22.065Z,6.23
2022-10-05T02:07:54.994Z,6.20
2022-10-05T02:10:26.901Z,6.67
2022-10-05T02:12:59.756Z,6.30
2022-10-05T02:15:34.916Z,6.27
2022-10-05T02:18:08.739Z,6.40
2022-10-05T02:20:39.107Z,6.90
2022-10-05T02:23:11.817Z,6.60
2022-10-05T02:25:43.740Z,7.00
2022-10-05T02:28:16.398Z,6.60
2022-10-05T02:30:49.836Z,7.13
2022-10-05T02:33:25.613Z,6.53
2022-10-05T02:35:54.516Z,7.07
2022-10-05T02:38:32.410Z,6.87
2022-10-05T02:41:09.211Z,6.30
2022-10-05T02:43:45.427Z,7.00
2022-10-05T02:46:25.043Z,7.43
2022-10-05T02:49:03.899Z,7.23
2022-10-05T02:51:39.486Z,7.33
2022-10-05T02:54:16.117Z,6.77
2022-10-05T02:56:55.125Z,7.23
2022-10-05T02:59:27.951Z,6.43
2022-10-05T03:02:05.321Z,7.23
2022-10-05T03:04:42.441Z,7.40
2022-10-05T03:07:17.362Z,7.30
2022-10-05T03:09:54.318Z,6.67
2022-10-05T03:12:35.853Z,6.30
2022-10-05T03:15:16.992Z,6.87
2022-10-05T03:17:55.825Z,6.80
2022-10-05T03:20:38.108Z,6.77
2022-10-05T03:23:09.910Z,7.17
2022-10-05T03:25:51.623Z,6.87
2022-10-05T03:28:26.347Z,6.70
2022-10-05T03:31:01.170Z,6.67
2022-10-05T03:33:39.422Z,7.30
2022-10-05T03:36:17.714Z,6.77
2022-10-05T03:38:51.924Z,7.17
2022-10-05T03:41:27.220Z,7.07
2022-10-05T03:44:20.319Z,7.30
2022-10-05T03:47:04.215Z,7.77
2022-10-05T03:49:44.420Z,6.60
2022-10-05T03:52:17.635Z,6.93
2022-10-05T03:54:50.124Z,7.37
2022-10-05T03:57:21.469Z,7.03
2022-10-05T03:59:57.279Z,7.77
2022-10-05T04:02:30.286Z,7.43
2022-10-05T04:05:04.167Z,6.97
2022-10-05T04:07:40.517Z,7.50
2022-10-05T04:10:15.526Z,7.80
2022-10-05T04:12:47.187Z,7.63
2022-10-05T04:15:20.222Z,7.03
2022-10-05T04:17:51.521Z,7.40
2022-10-05T04:20:25.833Z,7.60
2022-10-05T04:23:00.471Z,8.30
2022-10-05T04:25:33.177Z,7.83
2022-10-05T04:28:05.928Z,7.07
2022-10-05T04:30:39.043Z,7.33
2022-10-05T04:33:11.251Z,7.30
2022-10-05T04:35:55.111Z,7.77
2022-10-05T04:38:51.996Z,7.23
2022-10-05T04:41:34.084Z,7.27
2022-10-05T04:44:14.299Z,6.50
2022-10-05T04:47:00.321Z,7.00
2022-10-05T04:49:45.612Z,7.00
2022-10-05T04:52:24.279Z,6.60
2022-10-05T04:55:03.368Z,6.50
2022-10-05T04:57:41.432Z,6.53
2022-10-05T05:00:24.127Z,6.70
2022-10-05T05:03:10.821Z,7.50
2022-10-05T05:06:15.256Z,6.50
2022-10-05T05:09:05.185Z,6.53
2022-10-05T05:11:42.177Z,6.80
2022-10-05T05:14:40.090Z,6.33
2022-10-05T05:17:20.951Z,6.03
2022-10-05T05:19:58.890Z,5.80
2022-10-05T05:22:36.736Z,5.80
2022-10-05T05:25:25.875Z,6.27
2022-10-05T05:27:58.774Z,5.47
2022-10-05T05:30:36.056Z,5.47
2022-10-05T05:33:21.248Z,5.00
2022-10-05T05:36:23.769Z,4.63
2022-10-05T05:39:17.269Z,5.13
2022-10-05T05:41:58.967Z,4.90
2022-10-05T05:44:29.226Z,5.30
2022-10-05T05:47:05.182Z,5.33
2022-10-05T05:49:50.699Z,4.40
2022-10-05T05:52:23.172Z,4.90
2022-10-05T05:54:56.002Z,4.87
2022-10-05T05:57:31.458Z,4.80
2022-10-05T06:00:07.548Z,4.47
2022-10-05T06:02:47.164Z,5.00
2022-10-05T06:05:28.185Z,4.40
2022-10-05T06:07:59.498Z,4.67
2022-10-05T06:10:33.995Z,4.47
2022-10-05T06:13:15.069Z,4.00
2022-10-05T06:15:49.820Z,4.43
2022-10-05T06:18:21.903Z,4.23
2022-10-05T06:20:54.232Z,4.43
2022-10-05T06:23:29.223Z,3.90
2022-10-05T06:26:13.888Z,4.20
2022-10-05T06:28:51.015Z,3.97
2022-10-05T06:31:46.518Z,3.90
2022-10-05T06:34:29.656Z,3.67
2022-10-05T06:37:01.552Z,3.87
2022-10-05T06:39:46.336Z,3.67
2022-10-05T06:42:35.647Z,3.83
2022-10-05T06:45:25.520Z,3.53
2022-10-05T06:48:48.235Z,3.67
2022-10-05T06:51:35.645Z,3.83
2022-10-05T06:54:42.555Z,3.60
2022-10-05T06:57:20.835Z,3.57
2022-10-05T06:59:56.269Z,3.53
2022-10-05T07:02:36.241Z,3.50
2022-10-05T07:05:33.546Z,3.50
2022-10-05T07:08:05.067Z,3.53
2022-10-05T07:10:39.143Z,3.30
2022-10-05T07:13:22.482Z,3.20
2022-10-05T07:15:58.984Z,3.33
2022-10-05T07:18:40.671Z,3.30
2022-10-05T07:21:19.608Z,3.70
2022-10-05T07:23:59.203Z,3.30
2022-10-05T07:26:33.955Z,3.67
2022-10-05T07:29:22.404Z,3.13
2022-10-05T07:31:59.616Z,3.13
2022-10-05T07:34:40.883Z,3.30
2022-10-05T07:37:30.013Z,3.40
2022-10-05T07:40:06.093Z,3.03
2022-10-05T07:42:51.743Z,3.27
2022-10-05T07:45:29.956Z,3.17
2022-10-05T07:48:06.778Z,3.10
2022-10-05T07:50:42.220Z,3.50
2022-10-05T07:53:17.139Z,2.77
2022-10-05T07:55:49.285Z,2.90
2022-10-05T07:58:24.363Z,3.20
2022-10-05T08:01:03.549Z,3.03
2022-10-05T08:03:43.932Z,3.50
2022-10-05T08:06:18.348Z,2.90
2022-10-05T08:08:52.269Z,3.23
2022-10-05T08:11:27.827Z,3.13
2022-10-05T08:14:01.783Z,3.03
2022-10-05T08:16:34.199Z,3.00
2022-10-05T08:19:07.239Z,3.13
2022-10-05T08:21:41.008Z,2.80
2022-10-05T08:24:16.264Z,3.03
2022-10-05T08:26:52.876Z,3.40
2022-10-05T08:29:28.112Z,3.20
2022-10-05T08:32:01.892Z,3.10
2022-10-05T08:34:38.907Z,2.73
2022-10-05T08:37:13.226Z,2.33
2022-10-05T08:39:42.717Z,3.10
2022-10-05T08:42:44.481Z,3.07
2022-10-05T08:45:35.343Z,2.40
2022-10-05T08:48:23.997Z,3.10
2022-10-05T08:51:18.784Z,2.83
2022-10-05T08:54:17.667Z,2.70
2022-10-05T08:56:52.940Z,2.90
2022-10-05T09:00:02.491Z,2.70
2022-10-05T09:02:47.079Z,2.70
2022-10-05T09:05:39.309Z,2.80
2022-10-05T09:08:29.747Z,2.83
2022-10-05T09:11:11.871Z,2.63
2022-10-05T09:14:17.056Z,2.60
2022-10-05T09:16:53.733Z,2.50
2022-10-05T09:19:51.317Z,2.90
2022-10-05T09:22:34.954Z,2.47
2022-10-05T09:25:15.575Z,2.47
2022-10-05T09:27:52.966Z,2.40
2022-10-05T09:30:35.183Z,2.60
2022-10-05T09:33:43.955Z,2.50
2022-10-05T09:37:07.983Z,2.40
2022-10-05T09:40:16.821Z,2.57
2022-10-05T09:43:17.895Z,2.60
2022-10-05T09:46:12.005Z,2.50
2022-10-05T09:49:10.867Z,2.63
2022-10-05T09:52:05.810Z,2.73
2022-10-05T09:55:14.042Z,2.50
2022-10-05T09:58:20.268Z,2.30
2022-10-05T10:01:29.030Z,2.20
2022-10-05T10:04:12.930Z,2.77
2022-10-05T10:07:10.143Z,2.00
2022-10-05T10:09:46.701Z,2.60
2022-10-05T10:12:36.801Z,2.87
2022-10-05T10:15:41.472Z,2.80
2022-10-05T10:18:28.695Z,2.50
2022-10-05T10:21:08.363Z,2.30
2022-10-05T10:24:02.148Z,2.37
2022-10-05T10:27:02.668Z,2.20
2022-10-05T10:29:55.952Z,2.40
2022-10-05T10:33:01.056Z,2.40
2022-10-05T10:35:35.051Z,2.93
2022-10-05T10:38:26.468Z,2.40
2022-10-05T10:41:17.257Z,2.60
2022-10-05T10:44:16.193Z,2.50
2022-10-05T10:46:54.619Z,2.30
2022-10-05T10:49:37.584Z,2.40
2022-10-05T10:52:25.201Z,2.10
2022-10-05T10:55:26.524Z,2.40
2022-10-05T10:58:33.256Z,2.47
2022-10-05T11:01:19.529Z,2.40
2022-10-05T11:04:24.279Z,2.40
2022-10-05T11:07:20.957Z,2.40
2022-10-05T11:10:04.900Z,2.60
2022-10-05T11:13:17.460Z,2.17
2022-10-05T11:16:19.446Z,2.23
2022-10-05T11:19:24.856Z,2.37
2022-10-05T11:22:14.547Z,2.60
2022-10-05T11:24:54.636Z,2.60
2022-10-05T11:27:44.821Z,2.40
2022-10-05T11:30:30.955Z,2.63
2022-10-05T11:33:37.619Z,2.30
2022-10-05T11:36:42.751Z,2.23
2022-10-05T11:39:38.630Z,2.70
2022-10-05T11:42:56.251Z,2.20
2022-10-05T11:45:27.114Z,2.10
2022-10-05T11:48:26.309Z,2.40
2022-10-05T11:51:21.321Z,1.90
2022-10-05T11:53:59.696Z,1.87
2022-10-05T11:56:34.949Z,2.07
2022-10-05T11:59:12.833Z,1.90
2022-10-05T12:01:46.608Z,1.90
2022-10-05T12:04:20.878Z,1.70
2022-10-05T12:07:04.442Z,1.70
2022-10-05T12:10:18.099Z,1.80
2022-10-05T12:13:00.344Z,1.87
2022-10-05T12:15:37.504Z,1.70
2022-10-05T12:18:13.532Z,1.67
2022-10-05T12:20:47.735Z,1.67
2022-10-05T12:23:22.867Z,1.57
2022-10-05T12:25:59.263Z,1.80
2022-10-05T12:28:34.234Z,1.50
2022-10-05T12:31:18.110Z,1.50
2022-10-05T12:33:55.290Z,1.53
2022-10-05T12:36:46.186Z,1.40
2022-10-05T12:39:24.416Z,1.80
2022-10-05T12:42:00.613Z,1.60
2022-10-05T12:44:49.675Z,1.60
2022-10-05T12:47:28.155Z,1.90
2022-10-05T12:50:16.243Z,1.97
2022-10-05T12:52:57.259Z,1.50
2022-10-05T12:55:28.392Z,1.50
2022-10-05T12:58:06.187Z,1.70
2022-10-05T13:00:37.491Z,1.50
2022-10-05T13:03:17.200Z,1.90
2022-10-05T13:05:53.451Z,1.70
2022-10-05T13:08:29.363Z,1.67
2022-10-05T13:11:03.034Z,1.60
2022-10-05T13:13:56.466Z,1.87
2022-10-05T13:16:31.823Z,1.63
2022-10-05T13:19:15.503Z,1.60
2022-10-05T13:22:04.114Z,1.73
2022-10-05T13:24:37.383Z,1.67
2022-10-05T13:27:14.728Z,1.77
2022-10-05T13:29:52.288Z,1.60
2022-10-05T13:32:25.995Z,1.90
2022-10-05T13:35:03.667Z,1.80
2022-10-05T13:37:43.217Z,1.77
2022-10-05T13:40:23.029Z,1.50
2022-10-05T13:43:00.244Z,1.77
2022-10-05T13:45:32.326Z,1.77
2022-10-05T13:48:10.626Z,1.97
2022-10-05T13:50:49.164Z,1.77
2022-10-05T13:53:25.705Z,1.50
2022-10-05T13:56:00.404Z,1.80
2022-10-05T13:58:36.034Z,1.90
2022-10-05T14:01:09.349Z,1.90
2022-10-05T14:03:38.803Z,1.60
2022-10-05T14:06:15.530Z,1.80
2022-10-05T14:08:53.591Z,1.80
2022-10-05T14:11:27.496Z,1.53
2022-10-05T14:14:05.253Z,1.73
2022-10-05T14:16:35.406Z,1.73
2022-10-05T14:19:20.028Z,1.80
2022-10-05T14:21:55.148Z,2.07
2022-10-05T14:24:45.733Z,1.63
2022-10-05T14:27:22.738Z,1.70
2022-10-05T14:29:57.666Z,1.63
2022-10-05T14:32:27.004Z,1.60
2022-10-05T14:35:12.765Z,1.67
2022-10-05T14:37:57.055Z,1.93
2022-10-05T14:40:33.894Z,1.57
2022-10-05T14:43:17.764Z,1.70
2022-10-05T14:45:57.763Z,2.10
2022-10-05T14:48:28.222Z,2.13
2022-10-05T14:50:59.339Z,1.97
2022-10-05T14:53:39.099Z,2.13
2022-10-05T14:56:37.499Z,2.10
2022-10-05T14:59:25.454Z,1.77
2022-10-05T15:01:57.735Z,2.10
2022-10-05T15:04:37.314Z,1.80
2022-10-05T15:07:24.047Z,1.70
2022-10-05T15:10:17.683Z,1.70
2022-10-05T15:12:48.392Z,1.83
2022-10-05T15:15:26.999Z,1.60
2022-10-05T15:18:21.626Z,1.50
2022-10-05T15:20:58.248Z,1.27
2022-10-05T15:23:32.026Z,1.40
2022-10-05T15:26:17.198Z,1.40
2022-10-05T15:28:54.316Z,1.33
2022-10-05T15:31:31.003Z,1.47
2022-10-05T15:34:04.164Z,1.63
2022-10-05T15:36:37.895Z,1.50
2022-10-05T15:39:17.175Z,1.57
2022-10-05T15:42:00.147Z,1.60
2022-10-05T15:44:52.080Z,1.50
2022-10-05T15:47:24.100Z,1.57
2022-10-05T15:50:02.949Z,1.83
2022-10-05T15:52:38.824Z,1.60
2022-10-05T15:55:22.075Z,1.87
2022-10-05T15:58:00.296Z,1.73
2022-10-05T16:00:30.124Z,1.50
2022-10-05T16:03:09.502Z,1.70
2022-10-05T16:06:02.607Z,1.40
2022-10-05T16:08:56.960Z,1.70
2022-10-05T16:11:38.259Z,1.80
2022-10-05T16:14:20.448Z,1.70
2022-10-05T16:17:00.713Z,1.87
2022-10-05T16:19:37.991Z,2.00
2022-10-05T16:22:16.080Z,2.10
2022-10-05T16:24:56.250Z,2.63
2022-10-05T16:27:34.319Z,1.80
2022-10-05T16:30:08.530Z,2.00
2022-10-05T16:32:40.109Z,1.80
2022-10-05T16:35:17.958Z,1.77
2022-10-05T16:37:56.119Z,1.67
2022-10-05T16:40:30.049Z,2.00
2022-10-05T16:43:07.971Z,1.97
2022-10-05T16:45:56.306Z,2.00
2022-10-05T16:48:27.131Z,2.00
2022-10-05T16:51:16.083Z,2.20
2022-10-05T16:53:47.323Z,2.03
2022-10-05T16:56:18.763Z,1.77
2022-10-05T16:58:59.318Z,2.20
2022-10-05T17:01:42.191Z,1.93
2022-10-05T17:04:25.941Z,2.20
2022-10-05T17:07:16.710Z,1.50
2022-10-05T17:10:08.625Z,1.70
2022-10-05T17:12:48.483Z,1.90
2022-10-05T17:15:32.327Z,1.97
2022-10-05T17:18:16.567Z,1.80
2022-10-05T17:20:51.324Z,1.93
2022-10-05T17:23:35.951Z,1.87
2022-10-05T17:26:33.029Z,1.80
2022-10-05T17:29:13.654Z,1.60
2022-10-05T17:32:03.424Z,1.70
2022-10-05T17:34:34.743Z,1.70
2022-10-05T17:37:18.446Z,1.80
2022-10-05T17:39:50.205Z,2.07
2022-10-05T17:42:47.099Z,2.00
2022-10-05T17:45:50.646Z,2.20
2022-10-05T17:48:37.530Z,1.90
2022-10-05T17:51:37.823Z,1.80
2022-10-05T17:54:38.947Z,2.00
2022-10-05T17:57:23.138Z,2.07
2022-10-05T18:00:02.023Z,2.07
2022-10-05T18:02:42.804Z,2.20
2022-10-05T18:05:27.584Z,1.80
2022-10-05T18:08:37.234Z,2.10
2022-10-05T18:11:16.955Z,2.17
2022-10-05T18:13:49.945Z,2.00
2022-10-05T18:16:53.589Z,2.00
2022-10-05T18:19:23.544Z,2.03
2022-10-05T18:22:03.275Z,2.00
2022-10-05T18:25:03.888Z,2.20
2022-10-05T18:28:12.260Z,2.17
2022-10-05T18:30:58.836Z,2.00
2022-10-05T18:33:54.436Z,2.20
2022-10-05T18:36:38.042Z,2.00
2022-10-05T18:39:18.292Z,2.40
2022-10-05T18:41:58.707Z,2.47
2022-10-05T18:44:39.360Z,2.10
2022-10-05T18:47:15.635Z,2.30
2022-10-05T18:50:03.699Z,2.00
2022-10-05T18:52:43.701Z,2.37
2022-10-05T18:55:19.894Z,2.70
2022-10-05T18:58:12.042Z,2.43
2022-10-05T19:01:06.811Z,2.47
2022-10-05T19:03:48.985Z,2.37
2022-10-05T19:06:25.671Z,2.50
2022-10-05T19:09:07.968Z,2.40
2022-10-05T19:11:42.994Z,2.47
2022-10-05T19:14:24.723Z,2.60
2022-10-05T19:17:04.607Z,2.70
2022-10-05T19:20:09.757Z,2.40
2022-10-05T19:22:57.521Z,2.57
2022-10-05T19:25:37.571Z,2.33
2022-10-05T19:28:17.296Z,2.73
2022-10-05T19:30:59.790Z,2.53
2022-10-05T19:33:44.998Z,2.77
2022-10-05T19:36:27.286Z,2.80
2022-10-05T19:39:04.324Z,2.63
2022-10-05T19:41:45.533Z,2.50
2022-10-05T19:44:21.812Z,2.40
2022-10-05T19:47:05.695Z,2.30
2022-10-05T19:49:42.227Z,2.60
2022-10-05T19:52:14.015Z,2.67
2022-10-05T19:54:43.348Z,2.47
2022-10-05T19:57:17.861Z,2.70
2022-10-05T19:59:49.220Z,2.80
2022-10-05T20:02:18.850Z,2.70
2022-10-05T20:04:49.323Z,2.80
2022-10-05T20:07:21.629Z,2.80
2022-10-05T20:09:52.775Z,2.10
2022-10-05T20:12:22.815Z,2.43
2022-10-05T20:15:24.837Z,2.43
2022-10-05T20:18:12.047Z,1.83
2022-10-05T20:20:45.715Z,2.30
2022-10-05T20:23:20.913Z,2.20
2022-10-05T20:26:09.650Z,2.00
2022-10-05T20:28:38.371Z,2.10
2022-10-05T20:31:07.732Z,2.20
2022-10-05T20:33:36.984Z,2.00
2022-10-05T20:36:05.617Z,2.10
2022-10-05T20:38:40.612Z,1.90
2022-10-05T20:41:09.051Z,2.33
2022-10-05T20:43:38.928Z,1.90
2022-10-05T20:46:07.462Z,2.05
2022-10-05T20:48:36.961Z,2.07
2022-10-05T20:51:05.027Z,2.20
2022-10-05T20:53:33.502Z,1.90
2022-10-05T20:56:04.339Z,2.20
2022-10-05T20:58:32.226Z,1.70
2022-10-05T21:01:19.887Z,2.00
2022-10-05T21:03:50.443Z,2.10
2022-10-05T21:06:18.846Z,1.80
2022-10-05T21:08:47.093Z,1.60
2022-10-05T21:11:15.364Z,1.80
2022-10-05T21:13:44.680Z,1.87
2022-10-05T21:16:13.327Z,1.70
2022-10-05T21:18:42.462Z,1.60
2022-10-05T21:21:11.995Z,1.53
2022-10-05T21:23:39.857Z,1.30
2022-10-05T21:26:08.231Z,1.67
2022-10-05T21:28:36.319Z,1.60
2022-10-05T21:31:04.288Z,1.20
2022-10-05T21:33:32.399Z,1.10
2022-10-05T21:36:00.276Z,1.30
2022-10-05T21:38:29.954Z,1.27
2022-10-05T21:40:58.094Z,1.13
2022-10-05T21:43:26.708Z,1.20
2022-10-05T21:45:56.246Z,1.20
2022-10-05T21:48:26.671Z,1.33
2022-10-05T21:50:55.113Z,1.50
2022-10-05T21:53:28.324Z,1.40
2022-10-05T21:56:02.709Z,1.20
2022-10-05T21:58:31.706Z,1.00
2022-10-05T22:00:59.721Z,1.20
2022-10-05T22:03:27.702Z,1.10
2022-10-05T22:05:55.720Z,1.13
2022-10-05T22:08:27.856Z,1.17
2022-10-05T22:10:58.022Z,1.17
2022-10-05T22:13:26.995Z,1.00
2022-10-05T22:15:56.409Z,1.20
2022-10-05T22:18:26.651Z,1.13
2022-10-05T22:20:54.883Z,1.13
2022-10-05T22:23:22.713Z,1.00
2022-10-05T22:25:50.639Z,1.00
2022-10-05T22:28:19.849Z,1.00
2022-10-05T22:30:48.020Z,0.90
2022-10-05T22:33:15.803Z,0.90
2022-10-05T22:35:43.878Z,1.20
2022-10-05T22:38:11.727Z,1.20
2022-10-05T22:40:39.552Z,1.00
2022-10-05T22:43:07.539Z,1.07
2022-10-05T22:45:36.806Z,1.03
2022-10-05T22:48:04.857Z,1.10
2022-10-05T22:50:32.966Z,1.00
2022-10-05T22:53:00.867Z,1.03
2022-10-05T22:55:29.485Z,1.30
2022-10-05T22:57:57.400Z,1.30
2022-10-05T23:00:40.535Z,1.30
2022-10-05T23:03:16.890Z,1.30
2022-10-05T23:05:44.767Z,1.07
2022-10-05T23:08:12.604Z,1.40
2022-10-05T23:10:40.411Z,1.20
2022-10-05T23:13:08.657Z,1.27
2022-10-05T23:15:36.564Z,1.27
2022-10-05T23:18:04.644Z,1.17
2022-10-05T23:20:33.871Z,1.30
2022-10-05T23:23:01.681Z,1.30
2022-10-05T23:25:29.755Z,1.30
2022-10-05T23:27:57.653Z,1.40
2022-10-05T23:30:25.631Z,1.50
2022-10-05T23:32:53.490Z,1.60
2022-10-05T23:35:21.341Z,1.60
2022-10-05T23:37:50.847Z,1.70
2022-10-05T23:40:18.839Z,1.50
2022-10-05T23:42:46.801Z,1.60
2022-10-05T23:45:14.816Z,1.60
2022-10-05T23:47:42.626Z,1.97
2022-10-05T23:50:10.907Z,1.40
2022-10-05T23:52:39.007Z,1.53
2022-10-05T23:55:08.930Z,1.87
2022-10-05T23:57:38.204Z,1.90
